createdAt,value
2019-03-21T00:00:44.611Z,8.71
2019-03-21T00:03:12.241Z,8.78
2019-03-21T00:05:39.664Z,8.83
2019-03-21T00:08:07.462Z,8.76
2019-03-21T00:13:32.899Z,9.03
2019-03-21T00:16:00.336Z,8.89
2019-03-21T00:18:27.930Z,8.76
2019-03-21T00:20:56.157Z,8.57
2019-03-21T00:23:24.161Z,8.46
2019-03-21T00:25:51.734Z,8.48
2019-03-21T00:28:19.128Z,8.44
2019-03-21T00:30:46.528Z,8.46
2019-03-21T00:33:13.955Z,8.56
2019-03-21T00:35:41.346Z,8.62
2019-03-21T00:38:08.764Z,8.60
2019-03-21T00:40:37.263Z,8.58
2019-03-21T00:43:04.707Z,8.59
2019-03-21T00:45:32.111Z,8.51
2019-03-21T00:47:59.561Z,8.44
2019-03-21T00:50:27.773Z,8.38
2019-03-21T00:52:55.250Z,8.32
2019-03-21T00:55:22.660Z,8.28
2019-03-21T00:57:50.062Z,8.37
2019-03-21T01:00:26.672Z,8.44
2019-03-21T01:02:54.084Z,8.52
2019-03-21T01:05:21.562Z,8.51
2019-03-21T01:07:48.976Z,8.48
2019-03-21T01:10:31.398Z,8.37
2019-03-21T01:12:58.880Z,8.18
2019-03-21T01:15:26.327Z,8.25
2019-03-21T01:17:53.778Z,8.13
2019-03-21T01:20:21.263Z,8.06
2019-03-21T01:22:48.702Z,8.08
2019-03-21T01:25:32.823Z,8.00
2019-03-21T01:28:00.281Z,8.18
2019-03-21T01:30:27.876Z,8.19
2019-03-21T01:32:55.301Z,8.16
2019-03-21T01:35:22.798Z,8.09
2019-03-21T01:37:50.209Z,8.05
2019-03-21T01:40:21.346Z,8.01
2019-03-21T01:42:49.670Z,7.81
2019-03-21T01:45:24.900Z,7.70
2019-03-21T01:47:53.032Z,7.75
2019-03-21T01:50:20.585Z,7.77
2019-03-21T01:52:48.026Z,7.75
2019-03-21T01:55:15.507Z,7.65
2019-03-21T01:57:42.994Z,7.47
2019-03-21T02:00:11.030Z,7.43
2019-03-21T02:02:38.427Z,7.42
2019-03-21T02:05:05.822Z,7.40
2019-03-21T02:07:33.221Z,7.44
2019-03-21T02:10:00.940Z,7.38
2019-03-21T02:12:28.860Z,7.38
2019-03-21T02:14:56.294Z,7.42
2019-03-21T02:17:23.703Z,7.30
2019-03-21T02:19:51.228Z,7.24
2019-03-21T02:22:18.780Z,7.19
2019-03-21T02:24:46.204Z,7.21
2019-03-21T02:27:13.624Z,7.23
2019-03-21T02:29:41.025Z,7.26
2019-03-21T02:32:08.656Z,7.20
2019-03-21T02:34:36.083Z,7.13
2019-03-21T02:37:03.478Z,7.01
2019-03-21T02:39:30.889Z,6.95
2019-03-21T02:41:58.345Z,7.04
2019-03-21T02:44:25.763Z,6.97
2019-03-21T02:46:53.291Z,6.72
2019-03-21T02:49:20.767Z,6.63
2019-03-21T02:51:48.174Z,6.72
2019-03-21T02:54:15.577Z,6.77
2019-03-21T02:56:43.006Z,6.83
2019-03-21T02:59:10.498Z,6.87
2019-03-21T03:01:37.883Z,6.76
2019-03-21T03:04:05.307Z,6.70
2019-03-21T03:06:32.701Z,6.32
2019-03-21T03:09:00.117Z,6.21
2019-03-21T03:11:27.499Z,6.26
2019-03-21T03:13:54.902Z,6.34
2019-03-21T03:16:22.296Z,6.34
2019-03-21T03:18:49.766Z,6.39
2019-03-21T03:21:17.159Z,6.38
2019-03-21T03:23:44.556Z,6.37
2019-03-21T03:26:11.954Z,6.43
2019-03-21T03:28:43.233Z,6.43
2019-03-21T03:31:10.682Z,6.45
2019-03-21T03:33:38.113Z,6.38
2019-03-21T03:36:05.521Z,6.31
2019-03-21T03:38:33.038Z,6.36
2019-03-21T03:41:02.447Z,6.18
2019-03-21T03:43:29.857Z,6.04
2019-03-21T03:45:57.326Z,6.02
2019-03-21T03:48:24.726Z,6.13
2019-03-21T03:50:52.148Z,6.24
2019-03-21T03:53:19.597Z,6.16
2019-03-21T03:55:47.007Z,6.17
2019-03-21T03:58:15.284Z,6.14
2019-03-21T04:00:42.841Z,6.18
2019-03-21T04:03:10.297Z,6.10
2019-03-21T04:05:39.326Z,6.16
2019-03-21T04:08:06.851Z,6.06
2019-03-21T04:10:38.874Z,6.02
2019-03-21T04:13:06.283Z,6.08
2019-03-21T04:15:33.680Z,6.04
2019-03-21T04:18:01.143Z,6.00
2019-03-21T04:20:30.247Z,6.01
2019-03-21T04:22:57.681Z,6.03
2019-03-21T04:25:28.834Z,5.93
2019-03-21T04:27:56.285Z,5.95
2019-03-21T04:30:23.704Z,5.94
2019-03-21T04:32:51.137Z,5.93
2019-03-21T04:35:18.609Z,5.88
2019-03-21T04:37:46.319Z,5.75
2019-03-21T04:40:13.717Z,5.68
2019-03-21T04:42:41.119Z,5.67
2019-03-21T04:45:11.132Z,5.75
2019-03-21T04:47:38.598Z,5.67
2019-03-21T04:50:06.148Z,5.65
2019-03-21T04:52:33.546Z,5.68
2019-03-21T04:55:00.938Z,5.66
2019-03-21T04:57:28.436Z,5.62
2019-03-21T04:59:55.821Z,5.64
2019-03-21T05:02:23.499Z,5.66
2019-03-21T05:04:50.914Z,5.46
2019-03-21T05:07:18.320Z,5.52
2019-03-21T05:09:45.743Z,5.47
2019-03-21T05:12:13.210Z,5.41
2019-03-21T05:14:40.649Z,5.42
2019-03-21T05:17:08.090Z,5.49
2019-03-21T05:19:35.503Z,5.58
2019-03-21T05:22:02.906Z,5.55
2019-03-21T05:24:30.313Z,5.46
2019-03-21T05:26:57.744Z,5.43
2019-03-21T05:29:25.183Z,5.45
2019-03-21T05:31:53.645Z,5.48
2019-03-21T05:34:21.054Z,5.50
2019-03-21T05:36:50.300Z,5.50
2019-03-21T05:39:15.880Z,5.44
2019-03-21T05:41:43.288Z,5.32
2019-03-21T05:44:13.863Z,5.33
2019-03-21T05:46:41.504Z,5.45
2019-03-21T05:49:08.927Z,5.52
2019-03-21T05:51:36.386Z,5.52
2019-03-21T05:54:03.784Z,5.52
2019-03-21T05:56:31.301Z,5.31
2019-03-21T05:58:59.214Z,5.32
2019-03-21T06:01:26.895Z,5.27
2019-03-21T06:03:54.291Z,5.38
2019-03-21T06:06:23.362Z,5.32
2019-03-21T06:08:50.880Z,5.45
2019-03-21T06:11:18.367Z,5.46
2019-03-21T06:13:45.838Z,5.56
2019-03-21T06:16:13.429Z,5.68
2019-03-21T06:18:46.327Z,5.91
2019-03-21T06:21:17.310Z,6.13
2019-03-21T06:23:44.722Z,6.29
2019-03-21T06:26:21.952Z,6.40
2019-03-21T06:28:49.389Z,6.56
2019-03-21T06:31:16.839Z,6.65
2019-03-21T06:33:44.227Z,6.87
2019-03-21T06:36:11.643Z,6.99
2019-03-21T06:38:39.038Z,7.16
2019-03-21T06:41:06.707Z,7.25
2019-03-21T06:43:34.122Z,7.38
2019-03-21T06:46:01.545Z,7.51
2019-03-21T06:48:31.815Z,7.58
2019-03-21T06:50:59.453Z,7.52
2019-03-21T06:53:27.593Z,7.67
2019-03-21T06:55:54.979Z,7.81
2019-03-21T06:58:23.339Z,7.81
2019-03-21T07:00:50.896Z,7.99
2019-03-21T07:03:18.351Z,8.13
2019-03-21T07:05:45.758Z,8.22
2019-03-21T07:08:13.347Z,8.25
2019-03-21T07:10:40.796Z,8.25
2019-03-21T07:13:08.219Z,8.27
2019-03-21T07:15:35.704Z,8.35
2019-03-21T07:18:03.543Z,8.40
2019-03-21T07:20:30.975Z,8.44
2019-03-21T07:22:58.430Z,8.38
2019-03-21T07:25:25.838Z,8.32
2019-03-21T07:27:53.241Z,8.14
2019-03-21T07:30:20.687Z,8.21
2019-03-21T07:32:48.687Z,8.47
2019-03-21T07:35:16.082Z,8.61
2019-03-21T07:37:43.727Z,8.45
2019-03-21T07:40:12.096Z,8.64
2019-03-21T07:42:39.531Z,8.89
2019-03-21T07:45:06.912Z,9.06
2019-03-21T07:47:34.736Z,9.22
2019-03-21T07:50:02.129Z,9.38
2019-03-21T07:52:29.535Z,9.61
2019-03-21T07:54:57.051Z,9.90
2019-03-21T07:57:24.442Z,9.95
2019-03-21T07:59:51.951Z,10.08
2019-03-21T08:02:19.439Z,10.27
2019-03-21T08:04:46.882Z,10.39
2019-03-21T08:07:14.314Z,10.45
2019-03-21T08:09:41.734Z,10.64
2019-03-21T08:12:09.731Z,10.82
2019-03-21T08:14:37.330Z,11.04
2019-03-21T08:17:04.561Z,11.17
2019-03-21T08:19:32.487Z,11.30
2019-03-21T08:22:00.677Z,11.41
2019-03-21T08:24:28.087Z,11.55
2019-03-21T08:26:55.557Z,11.57
2019-03-21T08:29:22.495Z,11.60
2019-03-21T08:31:49.710Z,11.70
2019-03-21T08:34:17.153Z,11.81
2019-03-21T08:36:44.565Z,11.80
2019-03-21T08:39:12.020Z,11.73
2019-03-21T08:41:39.459Z,11.63
2019-03-21T08:44:06.859Z,11.50
2019-03-21T08:46:34.439Z,11.48
2019-03-21T08:49:02.199Z,11.50
2019-03-21T08:51:29.655Z,11.59
2019-03-21T08:53:57.078Z,11.58
2019-03-21T08:56:24.830Z,11.62
2019-03-21T08:58:52.224Z,11.73
2019-03-21T09:01:19.633Z,11.75
2019-03-21T09:03:47.146Z,11.75
2019-03-21T09:06:15.363Z,11.75
2019-03-21T09:08:42.782Z,11.75
2019-03-21T09:11:09.775Z,11.78
2019-03-21T09:13:36.872Z,11.81
2019-03-21T09:16:03.830Z,11.93
2019-03-21T09:18:31.268Z,12.00
2019-03-21T09:20:58.704Z,12.03
2019-03-21T09:23:26.123Z,12.03
2019-03-21T09:25:53.581Z,12.07
2019-03-21T09:28:21.049Z,12.16
2019-03-21T09:30:50.514Z,12.17
2019-03-21T09:33:15.613Z,12.25
2019-03-21T09:35:42.690Z,12.28
2019-03-21T09:38:09.634Z,12.32
2019-03-21T09:40:37.130Z,12.36
2019-03-21T09:43:04.107Z,12.42
2019-03-21T09:45:31.137Z,12.50
2019-03-21T09:47:58.715Z,12.68
2019-03-21T09:50:25.684Z,12.37
2019-03-21T09:52:52.622Z,12.34
2019-03-21T09:55:19.585Z,11.96
2019-03-21T09:57:46.525Z,12.14
2019-03-21T10:00:13.587Z,11.94
2019-03-21T10:02:41.334Z,11.83
2019-03-21T10:05:08.320Z,12.09
2019-03-21T10:07:35.284Z,12.56
2019-03-21T10:10:02.270Z,13.05
2019-03-21T10:12:29.708Z,13.39
2019-03-21T10:14:57.163Z,13.55
2019-03-21T10:17:24.576Z,13.67
2019-03-21T10:19:52.088Z,13.79
2019-03-21T10:22:19.487Z,13.97
2019-03-21T10:24:47.154Z,14.14
2019-03-21T10:27:14.577Z,14.30
2019-03-21T10:29:41.600Z,14.40
2019-03-21T10:32:14.248Z,14.49
2019-03-21T10:34:35.547Z,14.62
2019-03-21T10:37:02.537Z,14.83
2019-03-21T10:39:29.490Z,15.02
2019-03-21T10:41:56.913Z,15.04
2019-03-21T10:44:24.401Z,15.33
2019-03-21T10:46:51.857Z,15.56
2019-03-21T10:49:19.519Z,15.71
2019-03-21T10:51:54.914Z,15.78
2019-03-21T10:54:13.509Z,15.94
2019-03-21T10:56:40.900Z,16.13
2019-03-21T10:59:07.866Z,16.45
2019-03-21T11:01:34.829Z,16.79
2019-03-21T11:04:01.886Z,16.84
2019-03-21T11:06:29.062Z,16.80
2019-03-21T11:08:56.020Z,16.97
2019-03-21T11:11:23.117Z,17.09
2019-03-21T11:13:50.154Z,17.36
2019-03-21T11:16:17.147Z,17.64
2019-03-21T11:18:44.149Z,17.46
2019-03-21T11:21:11.726Z,17.11
2019-03-21T11:23:39.172Z,17.66
2019-03-21T11:26:06.977Z,18.14
2019-03-21T11:28:33.992Z,18.43
2019-03-21T11:31:01.421Z,18.62
2019-03-21T11:33:29.021Z,18.70
2019-03-21T11:35:56.483Z,18.92
2019-03-21T11:38:23.999Z,19.14
2019-03-21T11:40:50.959Z,18.62
2019-03-21T11:43:17.949Z,18.10
2019-03-21T11:45:47.540Z,17.63
2019-03-21T11:48:12.404Z,17.41
2019-03-21T11:50:40.010Z,17.92
2019-03-21T11:53:07.475Z,18.15
2019-03-21T11:55:34.908Z,18.07
2019-03-21T11:58:02.399Z,17.60
2019-03-21T12:00:36.349Z,17.48
2019-03-21T12:02:57.561Z,17.63
2019-03-21T12:05:25.061Z,17.87
2019-03-21T12:07:52.539Z,18.23
2019-03-21T12:10:19.937Z,18.73
2019-03-21T12:12:47.587Z,18.54
2019-03-21T12:15:15.057Z,18.28
2019-03-21T12:17:42.638Z,18.63
2019-03-21T12:20:10.123Z,19.46
2019-03-21T12:22:37.777Z,20.11
2019-03-21T12:25:04.895Z,20.51
2019-03-21T12:27:31.890Z,19.70
2019-03-21T12:29:58.878Z,19.56
2019-03-21T12:32:26.379Z,19.15
2019-03-21T12:34:53.328Z,18.78
2019-03-21T12:37:20.284Z,18.46
2019-03-21T12:39:47.837Z,18.67
2019-03-21T12:42:15.489Z,18.78
2019-03-21T12:44:42.944Z,19.01
2019-03-21T12:47:10.381Z,19.19
2019-03-21T12:49:37.982Z,18.98
2019-03-21T12:52:05.399Z,18.77
2019-03-21T12:54:32.855Z,18.58
2019-03-21T12:57:00.284Z,18.88
2019-03-21T12:59:27.703Z,19.15
2019-03-21T13:01:55.222Z,19.13
2019-03-21T13:04:22.643Z,19.05
2019-03-21T13:06:50.217Z,19.14
2019-03-21T13:09:17.641Z,19.26
2019-03-21T13:11:46.004Z,19.77
2019-03-21T13:14:13.572Z,19.44
2019-03-21T13:16:41.041Z,19.53
2019-03-21T13:19:08.659Z,19.56
2019-03-21T13:21:36.084Z,19.35
2019-03-21T13:24:03.504Z,19.31
2019-03-21T13:26:30.926Z,19.50
2019-03-21T13:28:58.451Z,19.27
2019-03-21T13:31:25.844Z,19.02
2019-03-21T13:33:54.181Z,18.88
2019-03-21T13:36:21.602Z,18.85
2019-03-21T13:38:48.571Z,18.79
2019-03-21T13:41:16.123Z,18.87
2019-03-21T13:43:43.573Z,18.85
2019-03-21T13:46:11.030Z,19.02
2019-03-21T13:48:38.557Z,19.37
2019-03-21T13:51:06.046Z,19.63
2019-03-21T13:53:33.448Z,19.72
2019-03-21T13:56:00.867Z,20.01
2019-03-21T13:58:29.014Z,20.21
2019-03-21T14:00:56.460Z,20.61
2019-03-21T14:03:25.400Z,20.75
2019-03-21T14:05:51.435Z,20.28
2019-03-21T14:08:18.360Z,20.21
2019-03-21T14:10:45.333Z,20.49
2019-03-21T14:13:12.754Z,20.85
2019-03-21T14:15:40.366Z,20.83
2019-03-21T14:18:07.791Z,21.06
2019-03-21T14:20:35.875Z,21.56
2019-03-21T14:23:03.343Z,21.10
2019-03-21T14:25:30.800Z,20.67
2019-03-21T14:27:58.228Z,20.38
2019-03-21T14:30:25.656Z,20.34
2019-03-21T14:32:53.087Z,20.37
2019-03-21T14:35:20.591Z,20.38
2019-03-21T14:37:47.999Z,20.57
2019-03-21T14:40:15.496Z,20.88
2019-03-21T14:42:43.028Z,20.75
2019-03-21T14:45:10.332Z,20.73
2019-03-21T14:47:37.748Z,20.30
2019-03-21T14:50:05.981Z,20.10
2019-03-21T14:52:33.539Z,19.94
2019-03-21T14:55:01.003Z,19.89
2019-03-21T14:57:28.439Z,19.80
2019-03-21T14:59:55.899Z,20.12
2019-03-21T15:02:23.548Z,20.19
2019-03-21T15:04:51.025Z,19.93
2019-03-21T15:07:18.858Z,20.15
2019-03-21T15:09:46.132Z,19.96
2019-03-21T15:12:13.616Z,19.85
2019-03-21T15:14:41.075Z,19.67
2019-03-21T15:17:08.605Z,19.67
2019-03-21T15:19:36.151Z,19.41
2019-03-21T15:22:03.828Z,19.43
2019-03-21T15:24:31.285Z,19.40
2019-03-21T15:26:58.746Z,19.42
2019-03-21T15:29:26.172Z,19.45
2019-03-21T15:31:53.644Z,19.58
2019-03-21T15:34:21.181Z,19.53
2019-03-21T15:36:48.576Z,19.60
2019-03-21T15:39:16.003Z,19.68
2019-03-21T15:41:43.409Z,19.59
2019-03-21T15:44:10.912Z,19.42
2019-03-21T15:46:39.169Z,19.41
2019-03-21T15:49:07.202Z,19.54
2019-03-21T15:51:34.623Z,19.87
2019-03-21T15:54:02.026Z,20.17
2019-03-21T15:56:29.474Z,19.65
2019-03-21T15:58:56.876Z,19.53
2019-03-21T16:01:24.336Z,19.39
2019-03-21T16:03:51.720Z,19.27
2019-03-21T16:06:19.201Z,19.27
2019-03-21T16:08:46.641Z,19.22
2019-03-21T16:11:14.062Z,19.15
2019-03-21T16:13:41.502Z,19.19
2019-03-21T16:16:09.013Z,19.25
2019-03-21T16:18:37.363Z,19.41
2019-03-21T16:21:06.068Z,19.07
2019-03-21T16:23:32.043Z,18.79
2019-03-21T16:25:59.730Z,18.73
2019-03-21T16:28:27.411Z,18.41
2019-03-21T16:30:54.818Z,18.26
2019-03-21T16:33:22.234Z,18.21
2019-03-21T16:35:50.200Z,18.07
2019-03-21T16:38:17.604Z,18.26
2019-03-21T16:40:45.120Z,18.45
2019-03-21T16:43:12.563Z,18.70
2019-03-21T16:45:40.036Z,18.76
2019-03-21T16:48:09.160Z,18.55
2019-03-21T16:50:34.943Z,18.29
2019-03-21T16:53:02.394Z,18.26
2019-03-21T16:55:29.797Z,18.10
2019-03-21T16:57:57.284Z,17.94
2019-03-21T17:00:24.682Z,17.75
2019-03-21T17:02:52.100Z,17.47
2019-03-21T17:05:22.155Z,17.43
2019-03-21T17:07:47.285Z,17.37
2019-03-21T17:10:15.620Z,17.46
2019-03-21T17:12:43.112Z,17.42
2019-03-21T17:15:10.617Z,17.32
2019-03-21T17:17:38.038Z,17.04
2019-03-21T17:20:05.475Z,16.75
2019-03-21T17:22:33.003Z,16.47
2019-03-21T17:25:00.463Z,16.16
2019-03-21T17:27:27.883Z,16.02
2019-03-21T17:29:55.522Z,15.81
2019-03-21T17:32:22.942Z,15.58
2019-03-21T17:34:50.380Z,15.42
2019-03-21T17:37:17.831Z,15.32
2019-03-21T17:39:45.311Z,15.24
2019-03-21T17:42:12.778Z,15.14
2019-03-21T17:44:40.227Z,15.04
2019-03-21T17:47:07.680Z,14.95
2019-03-21T17:49:35.194Z,14.82
2019-03-21T17:52:02.696Z,14.69
2019-03-21T17:54:40.979Z,14.56
2019-03-21T17:56:57.547Z,14.43
2019-03-21T17:59:24.993Z,14.35
2019-03-21T18:01:52.429Z,14.32
2019-03-21T18:04:19.924Z,14.28
2019-03-21T18:06:47.368Z,14.16
2019-03-21T18:09:14.990Z,13.97
2019-03-21T18:11:42.482Z,13.87
2019-03-21T18:14:09.901Z,13.82
2019-03-21T18:16:37.536Z,13.73
2019-03-21T18:19:04.953Z,13.74
2019-03-21T18:21:32.500Z,13.67
2019-03-21T18:24:00.043Z,13.58
2019-03-21T18:26:27.457Z,13.51
2019-03-21T18:28:54.410Z,13.52
2019-03-21T18:31:21.832Z,13.55
2019-03-21T18:33:49.281Z,13.53
2019-03-21T18:36:16.690Z,13.36
2019-03-21T18:38:56.613Z,13.20
2019-03-21T18:41:11.658Z,13.20
2019-03-21T18:43:39.114Z,13.08
2019-03-21T18:46:06.598Z,12.95
2019-03-21T18:48:34.026Z,12.87
2019-03-21T18:51:01.474Z,12.94
2019-03-21T18:53:28.900Z,13.01
2019-03-21T18:55:56.553Z,13.07
2019-03-21T18:58:23.967Z,13.11
2019-03-21T19:00:51.419Z,13.09
2019-03-21T19:03:18.850Z,13.05
2019-03-21T19:05:46.342Z,13.04
2019-03-21T19:08:13.769Z,13.04
2019-03-21T19:10:41.259Z,12.92
2019-03-21T19:13:08.710Z,12.87
2019-03-21T19:15:36.163Z,12.83
2019-03-21T19:18:03.712Z,12.75
2019-03-21T19:20:31.179Z,12.69
2019-03-21T19:22:58.615Z,12.49
2019-03-21T19:25:26.287Z,12.31
2019-03-21T19:27:53.759Z,12.29
2019-03-21T19:30:21.195Z,12.27
2019-03-21T19:32:48.663Z,12.29
2019-03-21T19:35:16.228Z,12.20
2019-03-21T19:37:43.659Z,12.13
2019-03-21T19:40:13.895Z,12.09
2019-03-21T19:42:41.415Z,12.07
2019-03-21T19:45:10.666Z,11.95
2019-03-21T19:47:38.207Z,11.85
2019-03-21T19:50:06.776Z,11.85
2019-03-21T19:52:33.758Z,11.85
2019-03-21T19:55:01.181Z,11.81
2019-03-21T19:57:29.642Z,11.80
2019-03-21T19:59:57.065Z,11.73
2019-03-21T20:02:24.493Z,11.68
2019-03-21T20:04:51.917Z,11.71
2019-03-21T20:07:19.507Z,11.72
2019-03-21T20:09:47.227Z,11.73
2019-03-21T20:12:14.623Z,11.76
2019-03-21T20:14:42.092Z,11.80
2019-03-21T20:17:09.545Z,11.81
2019-03-21T20:19:36.960Z,11.79
2019-03-21T20:22:04.397Z,11.74
2019-03-21T20:24:31.843Z,11.74
2019-03-21T20:26:59.794Z,11.74
2019-03-21T20:29:27.626Z,11.70
2019-03-21T20:31:55.098Z,11.70
2019-03-21T20:34:22.500Z,11.64
2019-03-21T20:36:49.940Z,11.58
2019-03-21T20:39:17.485Z,11.49
2019-03-21T20:41:45.022Z,11.37
2019-03-21T20:44:15.467Z,11.32
2019-03-21T20:46:39.881Z,11.25
2019-03-21T20:49:07.303Z,11.18
2019-03-21T20:51:34.714Z,11.09
2019-03-21T20:54:02.243Z,10.95
2019-03-21T20:56:29.693Z,10.81
2019-03-21T20:58:57.223Z,10.82
2019-03-21T21:01:24.644Z,10.85
2019-03-21T21:03:52.447Z,10.79
2019-03-21T21:06:20.042Z,10.79
2019-03-21T21:08:46.995Z,10.75
2019-03-21T21:11:14.455Z,10.69
2019-03-21T21:13:41.416Z,10.61
2019-03-21T21:16:08.387Z,10.52
2019-03-21T21:18:35.821Z,10.40
2019-03-21T21:21:03.271Z,10.34
2019-03-21T21:23:30.425Z,10.30
2019-03-21T21:26:05.601Z,10.20
2019-03-21T21:28:24.925Z,10.13
2019-03-21T21:30:53.301Z,10.04
2019-03-21T21:33:20.843Z,9.96
2019-03-21T21:35:48.260Z,9.87
2019-03-21T21:38:15.803Z,9.84
2019-03-21T21:40:43.418Z,9.83
2019-03-21T21:43:10.922Z,9.77
2019-03-21T21:45:38.351Z,9.70
2019-03-21T21:48:05.755Z,9.66
2019-03-21T21:50:33.312Z,9.73
2019-03-21T21:53:02.366Z,9.70
2019-03-21T21:55:30.916Z,9.71
2019-03-21T21:57:58.587Z,9.71
2019-03-21T22:00:25.976Z,9.66
2019-03-21T22:02:53.425Z,9.52
2019-03-21T22:05:21.833Z,9.27
2019-03-21T22:07:49.252Z,9.22
2019-03-21T22:10:16.648Z,9.28
2019-03-21T22:12:44.107Z,9.30
2019-03-21T22:15:11.522Z,9.36
2019-03-21T22:17:39.042Z,9.38
2019-03-21T22:20:06.434Z,9.35
2019-03-21T22:22:34.067Z,9.38
2019-03-21T22:25:01.537Z,9.40
2019-03-21T22:27:29.206Z,9.31
2019-03-21T22:29:57.528Z,9.23
2019-03-21T22:32:25.165Z,9.16
2019-03-21T22:34:52.593Z,9.12
2019-03-21T22:37:20.113Z,9.08
2019-03-21T22:39:47.559Z,9.01
2019-03-21T22:42:15.607Z,8.98
2019-03-21T22:44:43.165Z,9.00
2019-03-21T22:47:10.611Z,8.96
2019-03-21T22:49:38.112Z,8.86
2019-03-21T22:52:05.524Z,8.80
2019-03-21T22:54:32.958Z,8.83
2019-03-21T22:57:00.490Z,8.76
2019-03-21T22:59:28.087Z,8.72
2019-03-21T23:01:55.475Z,8.70
2019-03-21T23:04:22.900Z,8.57
2019-03-21T23:06:51.290Z,8.58
2019-03-21T23:09:18.714Z,8.61
2019-03-21T23:11:46.333Z,8.76
2019-03-21T23:14:13.873Z,8.83
2019-03-21T23:16:41.282Z,8.72
2019-03-21T23:19:08.832Z,8.68
2019-03-21T23:21:36.289Z,8.67
2019-03-21T23:24:03.702Z,8.59
2019-03-21T23:26:31.244Z,8.60
2019-03-21T23:28:58.636Z,8.68
2019-03-21T23:31:26.331Z,8.71
2019-03-21T23:33:53.755Z,8.67
2019-03-21T23:36:21.288Z,8.59
2019-03-21T23:38:49.124Z,8.47
2019-03-21T23:41:16.527Z,8.45
2019-03-21T23:43:43.936Z,8.50
2019-03-21T23:46:11.334Z,8.45
2019-03-21T23:48:38.819Z,8.36
2019-03-21T23:51:06.266Z,8.34
2019-03-21T23:53:33.705Z,8.29
2019-03-21T23:56:01.100Z,8.33
2019-03-21T23:58:28.497Z,8.40
